Time;durP1;ratioP1;P1;durP2;ratioP2;P2;SDS_P1;SDS_P2;PMS_P1;PMS_P2;Temp;Humidity;BMP_temperature;BMP_pressure;BME280_temperature;BME280_humidity;BME280_pressure;Samples;Min_cycle;Max_cycle;Signal;HPM_P1;HPM_P2
2023/08/10 00:00:27;;;;;;;3.80;2.10;;;;;;;19.87;100.00;100355.84;105912;1257;60468;-66
2023/08/10 00:02:55;;;;;;;5.40;2.00;;;;;;;19.87;100.00;100359.11;105850;1252;59804;-62
2023/08/10 00:05:24;;;;;;;4.20;2.10;;;;;;;19.89;100.00;100358.66;105819;1251;72958;-66
2023/08/10 00:07:51;;;;;;;5.60;2.40;;;;;;;19.89;100.00;100362.00;105607;1256;66960;-62
2023/08/10 00:10:19;;;;;;;5.70;2.30;;;;;;;19.90;100.00;100364.14;105764;1251;72695;-63
2023/08/10 00:12:47;;;;;;;4.50;2.50;;;;;;;19.89;100.00;100372.34;105682;1267;61954;-63
2023/08/10 00:15:15;;;;;;;5.90;2.10;;;;;;;19.89;100.00;100369.45;105694;1251;60099;-62
2023/08/10 00:17:43;;;;;;;5.30;2.20;;;;;;;19.88;100.00;100374.59;105761;1254;71276;-64
2023/08/10 00:20:11;;;;;;;4.00;2.10;;;;;;;19.89;100.00;100372.86;105759;1257;66977;-63
2023/08/10 00:22:39;;;;;;;4.80;2.50;;;;;;;19.88;100.00;100369.19;105829;1253;71362;-64
2023/08/10 00:25:07;;;;;;;4.60;2.80;;;;;;;19.86;100.00;100373.55;105812;1251;60760;-63
2023/08/10 00:27:38;;;;;;;4.70;2.10;;;;;;;19.85;100.00;100382.16;105970;1254;59638;-64
2023/08/10 00:30:07;;;;;;;7.00;2.30;;;;;;;19.85;100.00;100381.63;105705;1254;73024;-62
2023/08/10 00:32:36;;;;;;;8.10;2.60;;;;;;;19.85;100.00;100388.70;105950;1258;65795;-64
2023/08/10 00:35:04;;;;;;;5.30;3.00;;;;;;;19.83;100.00;100391.80;105562;1251;72603;-63
2023/08/10 00:37:32;;;;;;;5.10;2.50;;;;;;;19.82;100.00;100383.95;105839;1254;61740;-64
2023/08/10 00:40:00;;;;;;;3.50;1.80;;;;;;;19.79;100.00;100383.48;105539;1256;59837;-63
2023/08/10 00:42:28;;;;;;;6.40;2.70;;;;;;;19.76;100.00;100388.14;105914;1251;71862;-66
2023/08/10 00:44:56;;;;;;;5.70;2.10;;;;;;;19.75;100.00;100384.27;105793;1254;66929;-63
2023/08/10 00:47:25;;;;;;;4.10;2.30;;;;;;;19.76;100.00;100381.42;105731;1257;72736;-63
2023/08/10 00:49:53;;;;;;;4.10;2.50;;;;;;;19.76;100.00;100379.41;105690;1256;60034;-63
2023/08/10 00:52:21;;;;;;;5.10;2.50;;;;;;;19.76;100.00;100385.13;105493;1257;59634;-65
2023/08/10 00:54:49;;;;;;;5.00;2.40;;;;;;;19.79;100.00;100392.69;105457;1256;71862;-63
2023/08/10 00:57:17;;;;;;;5.40;2.70;;;;;;;19.81;100.00;100389.49;105769;1253;65545;-63
2023/08/10 00:59:45;;;;;;;4.20;2.20;;;;;;;19.81;100.00;100390.08;105767;1251;72612;-63
2023/08/10 01:02:13;;;;;;;7.70;2.70;;;;;;;19.78;100.00;100392.41;105964;1255;60038;-67
2023/08/10 01:04:41;;;;;;;6.60;2.40;;;;;;;19.74;100.00;100391.13;105519;1256;59559;-64
2023/08/10 01:07:19;;;;;;;22.10;2.70;;;;;;;19.69;100.00;100394.23;105517;1251;73093;-63
2023/08/10 01:09:51;;;;;;;5.00;2.40;;;;;;;19.64;100.00;100395.95;105807;1256;66912;-62
2023/08/10 01:12:22;;;;;;;4.10;2.80;;;;;;;19.59;100.00;100398.84;105759;1257;72670;-64
2023/08/10 01:15:14;;;;;;;5.50;2.90;;;;;;;19.55;100.00;100403.30;105755;1252;60206;-63
2023/08/10 01:17:45;;;;;;;5.10;2.20;;;;;;;19.48;100.00;100404.67;105413;1257;60076;-67
2023/08/10 01:20:13;;;;;;;4.70;2.40;;;;;;;19.42;100.00;100402.94;105698;1251;71838;-64
2023/08/10 01:22:47;;;;;;;5.00;2.90;;;;;;;19.36;100.00;100409.02;105704;1252;65768;-61
2023/08/10 01:25:15;;;;;;;8.10;3.00;;;;;;;19.29;100.00;100412.21;105710;1251;72951;-63
2023/08/10 01:27:44;;;;;;;7.20;3.10;;;;;;;19.23;100.00;100407.02;105636;1259;61550;-62
2023/08/10 01:30:12;;;;;;;3.90;2.20;;;;;;;19.17;100.00;100408.30;105954;1251;60094;-62
2023/08/10 01:32:40;;;;;;;5.60;2.60;;;;;;;19.12;100.00;100411.64;105924;1251;71218;-65
2023/08/10 01:35:10;;;;;;;9.00;3.30;;;;;;;19.07;100.00;100418.24;105940;1256;66364;-62
2023/08/10 01:37:37;;;;;;;4.50;2.60;;;;;;;19.02;100.00;100417.58;105687;1256;73550;-62
2023/08/10 01:40:07;;;;;;;5.80;2.50;;;;;;;18.99;100.00;100421.85;105799;1256;60019;-61
2023/08/10 01:42:35;;;;;;;3.90;2.50;;;;;;;18.94;100.00;100428.98;105652;1256;59538;-61
2023/08/10 01:45:05;;;;;;;4.90;2.90;;;;;;;18.89;100.00;100426.50;105953;1252;73105;-64
2023/08/10 01:48:28;;;;;;;5.20;2.90;;;;;;;18.84;100.00;100427.74;105596;1256;67016;-64
2023/08/10 01:50:57;;;;;;;11.30;3.20;;;;;;;18.80;100.00;100425.96;105857;1256;72654;-63
2023/08/10 01:53:28;;;;;;;4.60;3.00;;;;;;;18.78;100.00;100428.86;105752;1252;60277;-63
2023/08/10 01:55:56;;;;;;;6.50;2.90;;;;;;;18.77;100.00;100428.16;105628;1251;59241;-63
2023/08/10 01:58:24;;;;;;;7.00;3.30;;;;;;;18.77;100.00;100425.04;105813;1253;73094;-65
2023/08/10 02:00:52;;;;;;;4.80;2.90;;;;;;;18.77;100.00;100424.73;105477;1252;66705;-65
2023/08/10 02:11:09;;;;;;;4.40;2.10;;;;;;;18.84;100.00;100407.70;102318;1292;600459;-62
2023/08/10 02:13:37;;;;;;;6.80;2.20;;;;;;;18.82;100.00;100409.93;105020;1269;60054;-65
2023/08/10 02:16:05;;;;;;;4.60;2.60;;;;;;;18.81;100.00;100409.11;105409;1256;60068;-61
2023/08/10 02:18:33;;;;;;;3.70;2.40;;;;;;;18.78;100.00;100408.11;105577;1258;71963;-61
2023/08/10 02:21:01;;;;;;;4.60;2.00;;;;;;;18.77;100.00;100398.54;105683;1256;65817;-61
2023/08/10 02:23:29;;;;;;;5.70;2.30;;;;;;;18.76;100.00;100406.65;105955;1257;71328;-65
2023/08/10 02:25:56;;;;;;;4.30;2.60;;;;;;;18.75;100.00;100406.25;105555;1254;188372;-62
2023/08/10 02:28:24;;;;;;;6.80;3.00;;;;;;;18.73;100.00;100401.41;105769;1256;60095;-61
2023/08/10 02:30:52;;;;;;;3.80;2.30;;;;;;;18.71;100.00;100405.91;105759;1253;72245;-61
2023/08/10 02:33:20;;;;;;;5.90;2.30;;;;;;;18.70;100.00;100404.63;106208;1254;65729;-65
2023/08/10 02:35:47;;;;;;;6.20;2.50;;;;;;;18.69;100.00;100405.28;105562;1256;73229;-61
2023/08/10 02:38:15;;;;;;;7.10;3.40;;;;;;;18.69;100.00;100407.06;105527;1256;59669;-61
2023/08/10 02:40:43;;;;;;;5.30;2.50;;;;;;;18.72;100.00;100404.23;105791;1253;59666;-61
2023/08/10 02:43:11;;;;;;;4.90;2.30;;;;;;;18.74;100.00;100405.39;105858;1254;72845;-64
2023/08/10 02:45:39;;;;;;;7.30;2.60;;;;;;;18.76;100.00;100404.59;105654;1253;66920;-61
2023/08/10 02:48:07;;;;;;;5.20;2.60;;;;;;;18.77;100.00;100408.89;105734;1256;72746;-60
2023/08/10 02:50:36;;;;;;;4.70;2.80;;;;;;;18.80;100.00;100407.94;105749;1253;59722;-64
2023/08/10 02:53:05;;;;;;;6.80;3.70;;;;;;;18.83;100.00;100406.64;105562;1256;59488;-65
2023/08/10 02:55:33;;;;;;;6.10;3.00;;;;;;;18.85;100.00;100399.32;105798;1253;73087;-62
2023/08/10 02:58:01;;;;;;;6.00;3.10;;;;;;;18.87;100.00;100390.93;105819;1254;65995;-60
2023/08/10 03:00:29;;;;;;;5.40;2.70;;;;;;;18.92;100.00;100386.00;105776;1253;72789;-62
2023/08/10 03:02:59;;;;;;;7.00;3.30;;;;;;;18.96;100.00;100383.23;106209;1256;60205;-65
2023/08/10 03:05:27;;;;;;;5.60;2.70;;;;;;;19.02;100.00;100382.80;105646;1253;60451;-63
2023/08/10 03:07:55;;;;;;;6.90;2.60;;;;;;;19.08;100.00;100376.05;105575;1252;71845;-61
2023/08/10 03:10:23;;;;;;;5.00;2.30;;;;;;;19.20;100.00;100373.38;105847;1253;66910;-63
2023/08/10 03:12:51;;;;;;;5.50;2.30;;;;;;;19.33;100.00;100372.28;105854;1252;71423;-63
2023/08/10 03:15:19;;;;;;;5.20;2.30;;;;;;;19.45;100.00;100365.17;105653;1253;59788;-62
2023/08/10 03:17:47;;;;;;;5.40;2.50;;;;;;;19.53;100.00;100366.64;105925;1254;60067;-63
2023/08/10 03:20:16;;;;;;;4.50;2.00;;;;;;;19.61;100.00;100367.73;105935;1254;73112;-62
2023/08/10 03:22:46;;;;;;;3.90;1.90;;;;;;;19.74;100.00;100362.36;105732;1252;67289;-62
2023/08/10 03:25:14;;;;;;;5.40;1.80;;;;;;;19.87;100.00;100350.27;105918;1256;71495;-65
2023/08/10 03:27:42;;;;;;;4.10;2.00;;;;;;;20.06;100.00;100343.77;105706;1256;60121;-63
2023/08/10 03:30:13;;;;;;;4.90;2.10;;;;;;;20.38;100.00;100341.24;105937;1253;60059;-62
2023/08/10 03:32:41;;;;;;;3.00;1.90;;;;;;;20.77;100.00;100338.81;105627;1258;73544;-63
2023/08/10 03:35:10;;;;;;;4.10;1.90;;;;;;;21.25;100.00;100334.44;106044;1253;65631;-65
2023/08/10 03:37:38;;;;;;;3.90;2.10;;;;;;;21.82;100.00;100326.51;105605;1256;71447;-61
2023/08/10 03:40:07;;;;;;;3.10;1.50;;;;;;;22.34;100.00;100321.62;105899;1256;60043;-62
2023/08/10 03:42:35;;;;;;;5.00;2.10;;;;;;;22.77;100.00;100316.39;105812;1253;59529;-62
2023/08/10 03:45:04;;;;;;;6.20;2.10;;;;;;;23.12;100.00;100314.35;105773;1256;73068;-65
2023/08/10 03:47:32;;;;;;;4.00;1.70;;;;;;;23.44;100.00;100308.56;105758;1256;68049;-62
2023/08/10 03:50:00;;;;;;;3.40;1.50;;;;;;;23.86;100.00;100300.38;105857;1256;71182;-62
2023/08/10 03:52:28;;;;;;;3.40;1.80;;;;;;;24.33;100.00;100303.23;105770;1257;59647;-62
2023/08/10 03:54:55;;;;;;;2.90;1.90;;;;;;;24.75;100.00;100304.04;105882;1256;59528;-62
2023/08/10 03:57:24;;;;;;;4.00;1.80;;;;;;;25.09;100.00;100305.64;105821;1255;72971;-63
2023/08/10 03:59:52;;;;;;;3.50;1.60;;;;;;;25.38;100.00;100305.27;105826;1253;67346;-62
2023/08/10 04:02:20;;;;;;;3.70;1.50;;;;;;;25.64;100.00;100309.63;105863;1254;71408;-62
2023/08/10 04:04:48;;;;;;;3.40;1.70;;;;;;;26.05;100.00;100310.17;105746;1252;60680;-61
2023/08/10 04:07:16;;;;;;;4.60;1.70;;;;;;;26.47;100.00;100307.11;105550;1256;59624;-63
2023/08/10 04:09:47;;;;;;;4.50;1.90;;;;;;;26.68;100.00;100309.41;106042;1257;73111;-62
2023/08/10 04:12:16;;;;;;;4.90;1.80;;;;;;;26.77;100.00;100309.66;105795;1257;65916;-62
2023/08/10 04:14:43;;;;;;;4.00;1.80;;;;;;;26.89;100.00;100312.73;106191;1254;72626;-63
2023/08/10 04:17:11;;;;;;;3.70;2.00;;;;;;;27.07;100.00;100309.75;105911;1251;60388;-63
2023/08/10 04:19:39;;;;;;;3.40;1.80;;;;;;;27.24;100.00;100313.46;105750;1252;60486;-63
2023/08/10 04:22:07;;;;;;;3.60;1.60;;;;;;;27.27;100.00;100311.74;105836;1252;74387;-61
2023/08/10 04:24:35;;;;;;;2.90;1.60;;;;;;;27.29;99.87;100311.67;105934;1257;66901;-62
2023/08/10 04:27:02;;;;;;;5.60;2.10;;;;;;;27.36;98.96;100306.88;105907;1256;73284;-65
2023/08/10 04:29:32;;;;;;;13.80;2.30;;;;;;;27.54;99.20;100310.16;105742;1256;59692;-62
2023/08/10 04:31:59;;;;;;;3.30;1.90;;;;;;;27.69;97.18;100312.64;105999;1253;60077;-63
2023/08/10 04:34:27;;;;;;;2.70;1.50;;;;;;;27.59;96.16;100320.96;105795;1254;71880;-63
2023/08/10 04:36:55;;;;;;;4.80;2.20;;;;;;;27.12;96.25;100331.23;105923;1256;67732;-64
2023/08/10 04:39:23;;;;;;;4.80;2.10;;;;;;;26.52;100.00;100333.88;105587;1256;72290;-64
2023/08/10 04:41:51;;;;;;;5.40;2.20;;;;;;;26.18;100.00;100335.02;106217;1253;59714;-63
2023/08/10 04:44:19;;;;;;;5.00;2.50;;;;;;;25.83;100.00;100340.96;106427;1256;60034;-62
2023/08/10 04:46:46;;;;;;;4.40;2.10;;;;;;;25.70;100.00;100341.96;106071;1252;74433;-64
2023/08/10 04:49:14;;;;;;;3.60;1.80;;;;;;;25.88;100.00;100349.23;105905;1253;66796;-62
2023/08/10 04:51:42;;;;;;;5.80;2.00;;;;;;;26.01;100.00;100351.79;105996;1254;72675;-64
2023/08/10 04:54:10;;;;;;;3.70;1.80;;;;;;;25.86;100.00;100354.00;105871;1257;60100;-64
2023/08/10 04:56:38;;;;;;;3.30;2.00;;;;;;;25.61;100.00;100354.13;106277;1256;60000;-63
2023/08/10 04:59:05;;;;;;;4.60;2.20;;;;;;;25.39;100.00;100352.42;105645;1255;73505;-63
2023/08/10 05:01:33;;;;;;;4.50;2.20;;;;;;;25.21;100.00;100351.02;105742;1256;66404;-64
2023/08/10 05:04:01;;;;;;;2.90;1.60;;;;;;;25.02;100.00;100350.80;106035;1254;72654;-63
2023/08/10 05:06:29;;;;;;;4.90;2.30;;;;;;;24.68;100.00;100353.92;105922;1254;60135;-62
2023/08/10 05:08:56;;;;;;;3.60;2.00;;;;;;;24.41;100.00;100345.57;106084;1256;60522;-65
2023/08/10 05:11:24;;;;;;;3.70;2.00;;;;;;;24.24;100.00;100345.02;105905;1257;73319;-61
2023/08/10 05:13:52;;;;;;;4.70;2.00;;;;;;;24.27;100.00;100340.80;106041;1256;66866;-61
2023/08/10 05:16:21;;;;;;;5.90;1.80;;;;;;;24.32;100.00;100339.88;105934;1254;72748;-61
2023/08/10 05:18:50;;;;;;;3.90;1.90;;;;;;;24.34;100.00;100340.83;105650;1257;61366;-63
2023/08/10 05:21:18;;;;;;;5.70;2.20;;;;;;;24.53;100.00;100333.05;105806;1254;60052;-63
2023/08/10 05:23:46;;;;;;;3.90;1.80;;;;;;;25.09;100.00;100331.77;105825;1256;73158;-64
2023/08/10 05:26:14;;;;;;;5.30;1.70;;;;;;;25.90;100.00;100333.98;105793;1256;65639;-61
2023/08/10 05:28:42;;;;;;;4.40;2.10;;;;;;;26.54;100.00;100332.95;105836;1256;72786;-64
2023/08/10 05:31:11;;;;;;;3.10;1.60;;;;;;;26.69;100.00;100335.66;105784;1256;60064;-65
2023/08/10 05:33:39;;;;;;;4.60;1.70;;;;;;;26.48;100.00;100339.87;105769;1254;60010;-61
2023/08/10 05:36:07;;;;;;;3.80;2.30;;;;;;;26.33;100.00;100338.38;105921;1256;73098;-63
2023/08/10 05:38:35;;;;;;;5.60;2.70;;;;;;;26.30;100.00;100335.97;106001;1253;65813;-65
2023/08/10 05:41:03;;;;;;;5.50;2.20;;;;;;;26.54;100.00;100338.52;105623;1253;70859;-63
2023/08/10 05:43:31;;;;;;;3.00;1.90;;;;;;;27.03;100.00;100335.34;105652;1256;60125;-62
2023/08/10 05:45:58;;;;;;;9.00;2.30;;;;;;;27.46;100.00;100327.71;105813;1254;60315;-62
2023/08/10 05:48:27;;;;;;;8.70;2.40;;;;;;;27.73;100.00;100318.35;106074;1254;71616;-65
2023/08/10 05:50:54;;;;;;;5.40;2.30;;;;;;;28.06;100.00;100316.72;105465;1254;66821;-62
2023/08/10 05:53:22;;;;;;;4.70;2.50;;;;;;;28.55;100.00;100314.61;105811;1254;72734;-63
2023/08/10 05:55:50;;;;;;;3.50;2.40;;;;;;;28.91;100.00;100312.11;105555;1255;59129;-62
2023/08/10 05:58:18;;;;;;;6.00;2.30;;;;;;;29.29;99.78;100315.19;106029;1253;59641;-62
2023/08/10 06:00:46;;;;;;;4.80;2.40;;;;;;;29.68;96.64;100320.60;105735;1256;73785;-62
2023/08/10 06:03:15;;;;;;;5.00;2.40;;;;;;;29.68;89.32;100347.11;105673;1254;65644;-62
2023/08/10 06:05:43;;;;;;;6.80;2.50;;;;;;;29.02;90.71;100382.68;105656;1257;72698;-62
2023/08/10 06:08:11;;;;;;;10.70;2.90;;;;;;;28.19;98.17;100402.50;105885;1255;59689;-63
2023/08/10 06:10:39;;;;;;;6.00;2.40;;;;;;;27.77;100.00;100379.42;106104;1256;60311;-63
2023/08/10 06:13:07;;;;;;;5.10;2.20;;;;;;;27.91;100.00;100368.98;105842;1253;71828;-62
2023/08/10 06:15:35;;;;;;;4.60;1.80;;;;;;;27.96;100.00;100377.31;106016;1256;66961;-64
2023/08/10 06:18:04;;;;;;;4.90;1.80;;;;;;;27.81;100.00;100382.56;105678;1254;72585;-63
2023/08/10 06:20:33;;;;;;;7.30;1.80;;;;;;;27.77;100.00;100384.17;105880;1254;60498;-66
2023/08/10 06:23:01;;;;;;;5.90;2.20;;;;;;;28.21;100.00;100392.41;105696;1254;60341;-63
2023/08/10 06:25:30;;;;;;;4.40;2.30;;;;;;;28.79;100.00;100385.44;105720;1253;73862;-65
2023/08/10 06:27:59;;;;;;;7.00;2.60;;;;;;;29.23;100.00;100393.14;105713;1256;65707;-61
2023/08/10 06:30:27;;;;;;;3.70;1.90;;;;;;;29.45;99.58;100404.00;105881;1254;71428;-66
2023/08/10 06:32:56;;;;;;;10.20;2.70;;;;;;;29.66;99.44;100405.39;105411;1254;60487;-63
2023/08/10 06:35:24;;;;;;;7.40;2.20;;;;;;;30.02;96.82;100393.00;105734;1256;60702;-63
2023/08/10 06:37:52;;;;;;;5.20;2.00;;;;;;;30.27;91.96;100399.18;105784;1256;74312;-62
2023/08/10 06:40:20;;;;;;;4.80;2.20;;;;;;;30.13;90.23;100392.66;106021;1253;66936;-66
2023/08/10 06:42:48;;;;;;;5.20;2.20;;;;;;;29.84;92.88;100384.17;105711;1254;72717;-63
2023/08/10 06:45:20;;;;;;;5.30;2.00;;;;;;;29.66;95.21;100376.63;105599;1258;60555;-64
2023/08/10 06:47:49;;;;;;;6.70;2.80;;;;;;;29.37;97.16;100386.63;105648;1254;60412;-62
2023/08/10 06:50:17;;;;;;;5.00;2.00;;;;;;;28.95;99.89;100386.34;105727;1256;74002;-62
2023/08/10 06:52:45;;;;;;;9.50;2.80;;;;;;;28.69;100.00;100385.35;105847;1256;65788;-64
2023/08/10 06:55:13;;;;;;;5.20;3.20;;;;;;;28.54;100.00;100382.92;105778;1257;71576;-65
2023/08/10 06:57:41;;;;;;;5.70;2.90;;;;;;;28.38;100.00;100377.88;105744;1256;60587;-61
2023/08/10 07:00:19;;;;;;;16.80;3.20;;;;;;;28.18;100.00;100373.85;105785;1256;60514;-61
2023/08/10 07:02:53;;;;;;;7.20;4.10;;;;;;;27.96;100.00;100376.52;105877;1256;74331;-64
2023/08/10 07:05:23;;;;;;;6.60;2.70;;;;;;;27.81;100.00;100370.10;105506;1256;66158;-61
2023/08/10 07:07:51;;;;;;;4.90;3.10;;;;;;;27.93;100.00;100367.77;105784;1256;72633;-63
2023/08/10 07:10:19;;;;;;;5.30;3.00;;;;;;;28.35;100.00;100355.03;105769;1257;60459;-61
2023/08/10 07:12:47;;;;;;;8.60;2.80;;;;;;;28.88;100.00;100342.11;105969;1254;60540;-64
2023/08/10 07:15:15;;;;;;;7.00;2.60;;;;;;;29.50;100.00;100325.06;105546;1254;72524;-61
2023/08/10 07:17:42;;;;;;;4.80;2.60;;;;;;;30.17;100.00;100316.98;105869;1254;65627;-63
2023/08/10 07:20:10;;;;;;;6.90;2.40;;;;;;;30.80;100.00;100318.80;105770;1252;73119;-61
2023/08/10 07:22:38;;;;;;;6.10;2.70;;;;;;;31.21;99.47;100328.21;105759;1254;60893;-65
2023/08/10 07:25:07;;;;;;;10.70;3.40;;;;;;;31.26;92.32;100335.50;105716;1256;60295;-62
2023/08/10 07:27:35;;;;;;;7.60;3.00;;;;;;;31.04;95.37;100346.84;105965;1253;73909;-65
2023/08/10 07:30:03;;;;;;;6.90;2.90;;;;;;;30.86;96.02;100360.30;105713;1256;65644;-62
2023/08/10 07:32:31;;;;;;;9.10;3.30;;;;;;;30.73;97.10;100352.45;105799;1257;72918;-65
2023/08/10 07:34:59;;;;;;;6.30;3.10;;;;;;;30.65;99.41;100353.63;105805;1257;60527;-61
2023/08/10 07:37:26;;;;;;;7.70;3.00;;;;;;;30.55;99.43;100357.14;105770;1254;60972;-61
2023/08/10 07:39:54;;;;;;;6.00;3.10;;;;;;;30.29;100.00;100350.49;105771;1254;74056;-65
2023/08/10 07:42:22;;;;;;;8.40;4.10;;;;;;;29.99;100.00;100357.44;105677;1254;65626;-61
2023/08/10 07:44:50;;;;;;;8.90;3.80;;;;;;;29.71;100.00;100366.04;105774;1257;72698;-62
2023/08/10 07:47:17;;;;;;;7.10;3.30;;;;;;;29.50;100.00;100368.42;105665;1257;60443;-62
2023/08/10 07:49:45;;;;;;;8.30;3.70;;;;;;;29.55;100.00;100367.55;105742;1257;60914;-63
2023/08/10 07:52:13;;;;;;;10.30;3.80;;;;;;;29.65;100.00;100362.90;105633;1256;73338;-62
2023/08/10 07:54:41;;;;;;;5.10;3.60;;;;;;;29.77;100.00;100356.14;105781;1256;66920;-63
2023/08/10 07:57:09;;;;;;;7.50;3.10;;;;;;;29.85;100.00;100353.63;105826;1254;71926;-62
2023/08/10 07:59:37;;;;;;;6.70;3.70;;;;;;;29.75;100.00;100351.45;105795;1256;60431;-62
2023/08/10 08:02:05;;;;;;;7.80;3.20;;;;;;;29.71;100.00;100357.16;105774;1254;60886;-66
2023/08/10 08:04:33;;;;;;;7.20;3.60;;;;;;;29.72;100.00;100368.26;105420;1257;71873;-62
2023/08/10 08:07:01;;;;;;;4.60;3.00;;;;;;;29.78;100.00;100368.70;105702;1254;65279;-62
2023/08/10 08:09:28;;;;;;;8.30;3.90;;;;;;;29.97;100.00;100367.45;106167;1252;72916;-62
2023/08/10 08:11:56;;;;;;;8.50;4.00;;;;;;;30.13;100.00;100370.15;105946;1254;60536;-64
2023/08/10 08:14:24;;;;;;;4.20;3.30;;;;;;;30.32;100.00;100370.57;106058;1253;60370;-65
2023/08/10 08:16:52;;;;;;;4.60;3.00;;;;;;;30.50;100.00;100368.14;105569;1256;73855;-63
2023/08/10 08:19:19;;;;;;;6.50;3.90;;;;;;;30.72;100.00;100365.65;105922;1253;65298;-63
2023/08/10 08:21:48;;;;;;;5.50;3.10;;;;;;;30.93;100.00;100366.55;105841;1254;73432;-64
2023/08/10 08:24:17;;;;;;;5.60;3.20;;;;;;;31.08;100.00;100370.58;105528;1254;60531;-62
2023/08/10 08:26:44;;;;;;;7.90;3.80;;;;;;;31.08;100.00;100376.57;105632;1256;60369;-62
2023/08/10 08:29:12;;;;;;;5.60;4.40;;;;;;;30.86;100.00;100377.65;105868;1253;72310;-61
2023/08/10 08:31:40;;;;;;;9.80;6.80;;;;;;;30.66;100.00;100379.56;105991;1257;67193;-61
2023/08/10 08:34:08;;;;;;;7.60;4.30;;;;;;;30.48;100.00;100371.83;105813;1256;72669;-63
2023/08/10 08:36:36;;;;;;;4.70;3.50;;;;;;;30.17;100.00;100367.00;105852;1257;60720;-63
2023/08/10 08:39:04;;;;;;;5.20;3.50;;;;;;;29.92;100.00;100363.98;105884;1254;60405;-61
2023/08/10 08:41:36;;;;;;;4.60;3.10;;;;;;;29.77;100.00;100364.33;105799;1256;73847;-61
2023/08/10 08:44:05;;;;;;;5.90;3.30;;;;;;;29.63;100.00;100359.98;105813;1253;67592;-65
2023/08/10 08:46:33;;;;;;;4.70;3.40;;;;;;;29.53;100.00;100358.83;105911;1256;72853;-63
2023/08/10 08:49:01;;;;;;;6.40;3.20;;;;;;;29.50;100.00;100343.00;105758;1253;59488;-62
2023/08/10 08:51:30;;;;;;;13.50;4.50;;;;;;;29.40;100.00;100339.70;105896;1256;60421;-61
2023/08/10 08:54:00;;;;;;;7.10;4.10;;;;;;;29.22;100.00;100336.79;105871;1253;72607;-64
2023/08/10 08:56:28;;;;;;;5.80;3.40;;;;;;;29.01;100.00;100331.19;105906;1253;66614;-66
2023/08/10 08:59:00;;;;;;;6.30;3.60;;;;;;;28.77;100.00;100331.36;105681;1253;72713;-62
2023/08/10 09:01:28;;;;;;;5.90;3.10;;;;;;;28.59;100.00;100334.77;105726;1256;60425;-62
2023/08/10 09:03:56;;;;;;;6.20;3.60;;;;;;;28.41;100.00;100334.01;105741;1254;60520;-61
2023/08/10 09:06:24;;;;;;;4.80;3.40;;;;;;;28.28;100.00;100336.70;105412;1253;73760;-63
2023/08/10 09:08:52;;;;;;;5.00;3.50;;;;;;;28.15;100.00;100323.15;105488;1256;65644;-62
2023/08/10 09:11:20;;;;;;;8.00;3.70;;;;;;;28.04;100.00;100319.23;105737;1256;71414;-61
2023/08/10 09:14:08;;;;;;;6.40;3.70;;;;;;;27.98;100.00;100324.66;105745;1256;60395;-65
2023/08/10 09:16:39;;;;;;;6.10;4.10;;;;;;;27.94;100.00;100325.21;105406;1258;60766;-61
2023/08/10 09:19:11;;;;;;;;;;;;;;;27.91;100.00;100328.22;105631;1253;73160;-61
2023/08/10 09:21:38;;;;;;;9.50;4.40;;;;;;;27.84;100.00;100332.47;105759;1251;67033;-63
2023/08/10 09:24:09;;;;;;;7.20;4.40;;;;;;;27.79;100.00;100327.64;105958;1254;72688;-65
2023/08/10 09:26:38;;;;;;;10.20;4.60;;;;;;;27.81;100.00;100319.67;105661;1257;60469;-62
2023/08/10 09:29:06;;;;;;;9.20;4.70;;;;;;;27.88;100.00;100313.71;105666;1254;60535;-62
2023/08/10 09:31:37;;;;;;;7.40;4.90;;;;;;;27.92;100.00;100314.31;105718;1256;73962;-65
2023/08/10 09:34:21;;;;;;;8.10;4.50;;;;;;;27.99;100.00;100307.27;105775;1259;65808;-62
2023/08/10 09:36:53;;;;;;;7.90;5.10;;;;;;;28.12;100.00;100306.41;106301;1256;72730;-61
2023/08/10 09:39:21;;;;;;;8.80;4.50;;;;;;;28.27;100.00;100301.87;105678;1253;60446;-62
2023/08/10 09:41:56;;;;;;;7.80;4.80;;;;;;;28.48;100.00;100303.29;105834;1256;60687;-64
2023/08/10 09:44:23;;;;;;;6.80;4.50;;;;;;;28.67;100.00;100299.55;105758;1254;73951;-61
2023/08/10 09:46:56;;;;;;;8.00;4.40;;;;;;;28.76;100.00;100295.85;106064;1256;66962;-61
2023/08/10 09:49:23;;;;;;;7.60;5.00;;;;;;;28.84;100.00;100290.88;105626;1257;73382;-61
2023/08/10 09:51:51;;;;;;;6.30;4.30;;;;;;;28.79;100.00;100287.19;105741;1257;61495;-63
2023/08/10 09:54:19;;;;;;;7.40;5.00;;;;;;;28.79;100.00;100291.38;105728;1253;60432;-62
2023/08/10 09:56:49;;;;;;;6.90;4.70;;;;;;;28.86;100.00;100299.96;105757;1253;73152;-62
2023/08/10 09:59:17;;;;;;;8.90;5.10;;;;;;;28.98;100.00;100302.24;105614;1258;66704;-62
2023/08/10 10:01:45;;;;;;;9.20;5.00;;;;;;;28.99;100.00;100300.08;105727;1258;73125;-63
2023/08/10 10:04:13;;;;;;;9.20;5.50;;;;;;;29.02;100.00;100296.73;105744;1255;60440;-62
2023/08/10 10:06:42;;;;;;;11.50;5.60;;;;;;;29.02;100.00;100290.77;105693;1259;60962;-63
2023/08/10 10:09:09;;;;;;;9.40;5.40;;;;;;;28.98;100.00;100287.04;105777;1257;74020;-66
2023/08/10 10:11:37;;;;;;;8.60;5.20;;;;;;;28.94;100.00;100290.52;105677;1256;67096;-66
2023/08/10 10:14:05;;;;;;;9.40;5.30;;;;;;;28.88;100.00;100283.40;105695;1254;71767;-64
2023/08/10 10:16:34;;;;;;;6.10;5.10;;;;;;;28.82;100.00;100277.52;105716;1258;60335;-63
2023/08/10 10:19:02;;;;;;;7.00;4.90;;;;;;;28.73;100.00;100275.65;105838;1255;60434;-66
2023/08/10 10:21:29;;;;;;;8.00;5.60;;;;;;;28.71;100.00;100272.20;105736;1257;73948;-63
2023/08/10 10:24:04;;;;;;;12.70;5.20;;;;;;;28.79;100.00;100271.90;105747;1257;66901;-65
2023/08/10 10:26:31;;;;;;;10.40;4.70;;;;;;;28.88;100.00;100269.16;105812;1254;72699;-63
2023/08/10 10:29:12;;;;;;;7.60;4.80;;;;;;;29.07;100.00;100257.70;105795;1257;60284;-65
2023/08/10 10:31:39;;;;;;;6.80;4.50;;;;;;;29.30;100.00;100250.82;105910;1256;60401;-64
2023/08/10 10:34:13;;;;;;;10.40;4.90;;;;;;;29.46;100.00;100253.08;105550;1253;72616;-60
2023/08/10 10:36:41;;;;;;;6.00;4.40;;;;;;;29.63;100.00;100245.98;105486;1260;66154;-62
2023/08/10 10:39:11;;;;;;;8.80;4.70;;;;;;;29.81;100.00;100251.29;105558;1256;71720;-63
2023/08/10 10:41:42;;;;;;;8.50;4.90;;;;;;;30.03;100.00;100250.62;105618;1266;60392;-63
2023/08/10 10:44:10;;;;;;;7.10;4.70;;;;;;;30.28;100.00;100254.33;105736;1257;60431;-63
2023/08/10 10:46:40;;;;;;;7.00;4.10;;;;;;;30.34;100.00;100253.23;105730;1259;73937;-62
2023/08/10 10:49:14;;;;;;;8.90;4.30;;;;;;;30.27;100.00;100260.37;105870;1255;65847;-63
2023/08/10 10:51:58;;;;;;;6.30;4.20;;;;;;;30.35;100.00;100258.52;105598;1257;72251;-62
2023/08/10 10:54:28;;;;;;;7.40;4.70;;;;;;;30.65;100.00;100258.93;106016;1256;60376;-66
2023/08/10 10:56:56;;;;;;;8.20;4.50;;;;;;;30.87;100.00;100256.44;105442;1260;60397;-63
2023/08/10 10:59:24;;;;;;;6.70;4.10;;;;;;;31.11;100.00;100246.91;105384;1257;73444;-62
2023/08/10 11:01:52;;;;;;;9.40;4.20;;;;;;;31.24;100.00;100244.38;105694;1256;66931;-62
2023/08/10 11:04:22;;;;;;;10.00;3.90;;;;;;;31.32;100.00;100241.01;105994;1254;71871;-62
2023/08/10 11:06:50;;;;;;;7.60;4.00;;;;;;;31.50;100.00;100250.23;105622;1254;60411;-62
2023/08/10 11:09:20;;;;;;;8.10;4.30;;;;;;;31.78;100.00;100249.95;105813;1256;60527;-61
2023/08/10 11:11:50;;;;;;;6.90;4.10;;;;;;;32.14;100.00;100251.48;105737;1254;71870;-63
2023/08/10 11:14:18;;;;;;;6.10;3.70;;;;;;;32.40;100.00;100259.59;105695;1257;66149;-61
2023/08/10 11:16:46;;;;;;;8.10;3.90;;;;;;;32.63;99.08;100260.91;105517;1256;72642;-63
2023/08/10 11:19:14;;;;;;;6.30;3.80;;;;;;;32.75;98.56;100260.39;105680;1255;60550;-65
2023/08/10 11:21:43;;;;;;;6.10;3.30;;;;;;;32.92;98.06;100258.82;105826;1254;60443;-64
2023/08/10 11:24:11;;;;;;;6.10;3.50;;;;;;;33.03;94.99;100261.23;105830;1256;74014;-66